TAF Text Data
IDs:
Format:
Raw Decoded Include METAR

Data at: 0238 UTC 29 Nov 2020

KFTY 282346Z 2900/2924 33006KT P6SM BKN250
  FM290400 07004KT P6SM BKN250
  FM290800 08004KT P6SM BKN015
  FM291000 09005KT P6SM BKN006
  FM291600 11007KT P6SM VCSH BKN008
  FM291900 11009KT 4SM -RA BR OVC006